Date,TemperatureHighF,TemperatureAvgF,TemperatureLowF,DewpointHighF,DewpointAvgF,DewpointLowF,HumidityHigh,HumidityAvg,HumidityLow,PressureMaxIn,PressureMinIn,WindSpeedMaxMPH,WindSpeedAvgMPH,GustSpeedMaxMPH,PrecipitationSumIn
2014-1-1,63.0,55.9,48.0,25.0,20.5,13.0,30,25,18,0.00,40.00,12,6,69,0.00
2014-1-2,61.0,54.2,46.0,31.0,26.8,22.0,47,35,24,0.00,40.00,11,7,30,0.00
2014-1-3,63.0,56.0,51.0,30.0,26.8,22.0,38,33,25,0.00,40.00,10,3,34,0.00
2014-1-4,60.0,54.1,48.0,35.0,24.7,-99.9,48,35,14,0.00,40.00,21,11,149,0.00
2014-1-5,60.0,53.4,49.0,30.0,21.9,8.0,43,30,15,0.00,40.00,17,9,28,0.00
2014-1-6,57.0,51.7,48.0,34.0,31.2,27.0,52,46,41,0.00,40.00,11,5,15,0.00
2014-1-7,61.0,53.4,49.0,45.0,33.7,25.0,87,49,31,0.00,40.00,13,7,44,0.00
2014-1-8,52.0,48.7,46.0,47.0,45.5,44.0,92,89,77,0.00,40.00,11,7,55,0.00
2014-1-9,53.0,48.0,45.0,45.0,42.4,39.0,92,81,67,0.00,40.00,10,6,55,0.01
2014-1-10,62.0,52.8,46.0,43.0,40.4,35.0,77,63,46,0.00,40.00,9,5,41,0.01
2014-1-11,55.0,50.0,46.0,48.0,39.7,-99.9,91,71,50,0.00,40.00,16,7,70,0.00
2014-1-12,55.0,48.9,43.0,43.0,34.8,22.0,92,63,31,0.00,40.00,27,13,41,0.00
2014-1-13,61.0,54.1,49.0,33.0,29.2,24.0,50,39,29,0.00,40.00,36,22,48,0.00
2014-1-14,67.0,60.3,52.0,32.0,23.4,15.0,44,26,14,0.00,40.00,36,28,51,0.00
2014-1-15,65.0,59.7,51.0,31.0,25.9,13.0,38,28,13,0.00,40.00,29,16,37,0.00
2014-1-16,67.0,59.3,52.0,33.0,24.5,14.0,34,26,14,0.00,40.00,19,10,24,0.00
2014-1-17,66.0,58.5,52.0,33.0,25.4,16.0,37,28,18,0.00,40.00,19,8,35,0.00
2014-1-18,68.0,58.7,52.0,27.0,20.1,-99.9,30,23,16,0.00,40.00,18,8,23,0.00
2014-1-19,65.0,55.9,50.0,32.0,24.4,15.0,41,30,22,0.00,40.00,18,9,58,0.00
2014-1-20,67.0,57.8,51.0,29.0,23.0,18.0,36,26,18,0.00,40.00,19,10,55,0.00
2014-1-21,64.0,56.8,49.0,26.0,19.6,12.0,35,24,15,0.00,40.00,22,-31,32,0.00
2014-1-22,71.0,61.2,55.0,20.0,14.5,8.0,21,16,12,0.00,40.00,22,10,28,0.00
2014-1-23,61.0,55.2,51.0,30.0,24.9,17.0,44,31,19,0.00,40.00,22,12,31,0.00
2014-1-24,66.0,56.6,49.0,33.0,29.2,25.0,47,36,27,0.00,40.00,15,7,25,0.00
2014-1-25,67.0,59.2,53.0,27.0,22.4,-99.9,34,25,18,0.00,40.00,19,9,25,0.00
2014-1-26,73.0,61.3,54.0,33.0,24.2,19.0,38,24,17,0.00,40.00,11,6,49,0.00
2014-1-27,62.0,54.1,43.0,43.0,36.0,27.0,88,52,35,0.00,40.00,13,7,17,0.00
2014-1-28,64.0,56.3,51.0,53.0,44.7,38.0,91,66,48,0.00,40.00,9,6,89,0.00
2014-1-29,59.0,56.2,51.0,54.0,52.8,48.0,91,89,82,0.00,40.00,14,7,23,0.00
2014-1-30,54.0,49.2,46.0,48.0,43.5,39.0,91,82,56,0.00,40.00,15,8,26,0.08
2014-1-31,55.0,47.9,43.0,42.0,37.6,29.0,90,69,37,0.00,40.00,15,8,23,0.01
2014-2-1,56.0,45.7,39.0,35.0,28.6,-99.9,74,55,27,0.00,40.00,13,6,34,0.00
2014-2-2,46.0,42.5,40.0,40.0,34.4,24.0,92,75,44,0.00,40.00,28,-30,41,0.11
2014-2-3,48.0,42.8,38.0,38.0,35.7,33.0,91,77,64,0.00,40.00,21,10,28,0.03
2014-2-4,53.0,44.4,40.0,39.0,34.9,32.0,84,70,46,0.00,40.00,10,6,21,0.00
2014-2-5,51.0,44.2,39.0,38.0,35.5,32.0,84,72,49,0.00,40.00,34,-54,83,0.00
2014-2-6,48.0,45.5,42.0,45.0,41.9,36.0,92,87,74,0.00,40.00,13,-35,106,0.43
2014-2-7,52.0,49.0,47.0,44.0,43.1,41.0,88,80,74,0.00,40.00,40,0,53,0.05
2014-2-8,58.0,54.7,52.0,50.0,48.1,44.0,83,78,75,0.00,40.00,36,27,53,0.03
2014-2-9,57.0,55.1,54.0,51.0,49.9,49.0,87,82,78,0.00,40.00,26,20,39,0.01
2014-2-10,56.0,52.6,50.0,51.0,48.8,46.0,91,87,80,0.00,40.00,19,8,29,0.01
2014-2-11,60.0,51.4,44.0,48.0,44.5,41.0,91,78,55,0.00,40.00,12,6,56,0.01
2014-2-12,62.0,53.8,46.0,43.0,40.3,35.0,82,61,46,0.00,40.00,11,6,94,0.01
2014-2-13,68.0,58.1,50.0,54.0,48.2,38.0,89,70,52,0.00,40.00,12,7,21,0.00
2014-2-14,57.0,54.0,51.0,52.0,49.5,46.0,91,86,72,0.00,40.00,9,-107,39,0.00
2014-2-15,59.0,52.9,50.0,50.0,45.3,-99.9,87,78,62,0.00,40.00,17,-178,26,0.00
2014-2-16,63.0,53.7,47.0,48.0,39.8,31.0,92,63,34,0.00,40.00,20,12,31,0.00
2014-2-17,56.0,49.4,44.0,44.0,38.5,33.0,85,66,48,0.00,40.00,13,-35,134,0.00
2014-2-18,61.0,51.2,45.0,46.0,41.4,36.0,89,71,39,0.00,40.00,13,-14,21,0.00
2014-2-19,60.0,52.0,48.0,47.0,43.8,39.0,91,75,49,0.00,40.00,12,-15,21,0.02
2014-2-20,62.0,54.1,47.0,39.0,29.5,23.0,74,41,27,0.00,40.00,33,18,45,0.01
2014-2-21,69.0,57.8,51.0,39.0,33.2,30.0,48,40,27,0.00,40.00,24,10,33,0.00
2014-2-22,69.0,57.4,49.0,43.0,34.1,-99.9,63,44,26,0.00,40.00,20,9,48,0.00
2014-2-23,72.0,55.7,42.0,47.0,40.6,35.0,91,59,27,0.00,40.00,10,5,21,0.00
2014-2-24,70.0,60.5,52.0,42.0,36.6,30.0,53,42,29,0.00,40.00,14,8,107,0.00
2014-2-25,64.0,54.9,46.0,47.0,42.4,38.0,83,63,48,0.00,40.00,13,8,42,0.00
2014-2-26,57.0,53.2,50.0,49.0,45.7,42.0,85,76,67,0.00,40.00,30,13,49,0.44
2014-2-27,61.0,55.0,50.0,48.0,43.0,34.0,83,66,39,0.00,40.00,23,15,80,0.16
2014-2-28,61.0,52.5,50.0,49.0,44.1,32.0,86,74,33,0.00,40.00,29,-27,46,0.89
2014-3-1,61.0,53.9,51.0,45.0,41.0,-99.9,72,63,53,0.00,40.00,18,12,38,0.08
2014-3-2,56.0,53.0,50.0,50.0,45.0,42.0,87,74,66,0.00,40.00,32,12,41,0.01
2014-3-3,57.0,52.3,49.0,47.0,43.1,39.0,81,71,55,0.00,40.00,14,-35,69,0.05
2014-3-4,62.0,54.4,49.0,52.0,48.9,43.0,90,82,68,0.00,40.00,15,7,43,0.08
2014-3-5,66.0,58.3,52.0,53.0,48.4,41.0,90,71,46,0.00,40.00,23,10,33,0.01
2014-3-6,60.0,55.1,50.0,53.0,47.8,42.0,91,78,51,0.00,40.00,26,-520,38,0.04
2014-3-7,63.0,54.1,46.0,46.0,41.6,38.0,86,64,40,0.00,40.00,0,-999,0,0.01
2014-3-8,68.0,59.5,51.0,45.0,40.7,35.0,61,50,37,0.00,40.00,0,-999,0,0.00
2014-3-9,73.0,62.9,56.0,51.0,45.9,41.0,67,55,39,0.00,40.00,0,-999,0,0.00
2014-3-10,62.0,57.2,51.0,49.0,41.2,34.0,90,57,43,0.00,40.00,0,-999,0,0.03
2014-3-11,62.0,55.1,48.0,35.0,27.7,22.0,46,35,31,0.00,40.00,0,-999,0,0.01
2014-3-12,68.0,58.5,49.0,29.0,24.3,19.0,38,27,20,0.00,40.00,0,-999,0,0.00
2014-3-13,73.0,61.9,51.0,32.0,26.2,18.0,37,26,18,0.00,40.00,0,-999,0,0.00
2014-3-14,70.0,56.1,45.0,48.0,41.7,23.0,88,60,31,0.00,40.00,0,-999,0,0.00
2014-3-15,75.0,64.4,55.0,45.0,37.7,31.0,54,39,22,0.00,40.00,0,-999,0,0.00
2014-3-16,77.0,65.7,50.0,46.0,38.5,33.0,73,38,25,0.00,40.00,0,-999,0,0.00
2014-3-17,63.0,53.1,46.0,46.0,40.2,28.0,90,66,31,0.00,40.00,0,-999,0,0.00
2014-3-18,64.0,58.1,51.0,27.0,23.6,19.0,34,26,22,0.00,40.00,0,-999,0,0.00
2014-3-19,74.0,59.9,52.0,37.0,29.7,24.0,38,32,25,0.00,40.00,0,-999,0,0.00
2014-3-20,71.0,61.6,53.0,42.0,36.0,32.0,45,39,30,0.00,40.00,0,-999,0,0.00
2014-3-21,64.0,53.0,45.0,46.0,39.6,32.0,84,62,39,0.00,40.00,0,-999,0,0.00
2014-3-22,66.0,53.4,44.0,45.0,41.6,37.0,92,67,42,0.00,40.00,0,-999,0,0.00
2014-3-23,67.0,54.4,44.0,45.0,42.0,37.0,92,66,36,0.00,40.00,0,-999,0,0.00
2014-3-24,73.0,68.0,61.0,40.0,35.9,29.0,36,31,26,0.00,40.00,0,-999,0,0.00
2014-3-25,60.0,52.2,47.0,50.0,38.7,21.0,90,62,28,0.00,40.00,0,-999,21,0.06
2014-3-26,55.0,49.6,47.0,46.0,43.6,42.0,87,81,67,0.00,40.00,0,-999,0,0.24
2014-3-27,59.0,51.9,47.0,43.0,41.6,40.0,82,69,51,0.00,40.00,0,-999,0,0.02
2014-3-28,64.0,55.5,50.0,47.0,43.7,42.0,76,65,46,0.00,40.00,0,-999,0,0.00
2014-8-7,79.0,71.1,61.0,58.0,54.7,53.0,76,57,47,0.00,40.00,17,12,24,0.00
2014-8-8,80.0,66.0,55.0,57.0,53.4,44.0,98,68,39,0.00,40.00,21,11,27,0.00
2014-8-9,72.0,61.2,54.0,55.0,51.1,44.0,97,70,43,0.00,40.00,20,13,26,0.00
2014-8-10,78.0,64.0,54.0,55.0,53.6,52.0,97,72,43,0.00,40.00,15,10,22,0.00
2014-8-11,78.0,65.6,56.0,57.0,54.8,51.0,99,72,43,0.00,40.00,17,8,24,0.00
2014-8-12,77.0,64.3,55.0,56.0,54.5,52.0,97,74,42,0.00,40.00,20,11,29,0.00
2014-8-13,78.0,64.0,55.0,58.0,54.4,51.0,97,74,41,0.00,40.00,16,12,26,0.00
2014-8-14,80.0,69.7,58.0,58.0,54.5,47.0,92,62,37,0.00,40.00,19,10,27,0.00
2014-8-15,82.0,69.6,57.0,57.0,52.0,47.0,86,56,32,0.00,40.00,16,7,24,0.00
2014-8-16,82.0,67.9,56.0,57.0,52.6,46.0,97,60,38,0.00,40.00,16,8,24,0.00
2014-8-17,81.0,67.7,54.0,55.0,51.0,39.0,90,58,36,0.00,40.00,17,7,22,0.00
2014-8-18,76.0,62.3,54.0,57.0,55.1,52.0,100,80,50,0.00,40.00,19,12,25,0.00
2014-8-19,74.0,62.2,55.0,57.0,56.1,55.0,100,83,52,0.00,40.00,20,12,28,0.00
2014-8-20,76.0,64.2,57.0,58.0,55.6,54.0,96,76,47,0.00,40.00,21,13,28,0.00
2014-8-21,81.0,66.5,55.0,58.0,55.2,54.0,98,70,41,0.00,40.00,19,7,24,0.00
2014-8-22,78.0,67.0,56.0,56.0,54.5,52.0,95,66,45,0.00,40.00,20,11,28,0.00
2014-8-23,77.0,63.4,55.0,56.0,52.0,48.0,99,68,36,0.00,40.00,16,8,23,0.00
2014-8-24,74.0,63.5,54.0,55.0,54.5,53.0,98,75,50,0.00,40.00,19,11,26,0.00
2014-8-25,72.0,60.9,56.0,56.0,54.4,53.0,96,81,53,0.00,40.00,22,13,29,0.00
2014-8-26,79.0,64.6,55.0,55.0,53.0,52.0,93,69,40,0.00,40.00,15,8,20,0.00
2014-8-27,86.0,71.3,60.0,57.0,51.8,46.0,80,53,29,0.00,40.00,16,7,23,0.00
2014-8-28,84.0,69.8,56.0,58.0,53.2,47.0,95,59,33,0.00,40.00,15,7,21,0.00
2014-8-29,83.0,69.0,55.0,58.0,53.3,45.0,98,61,39,0.00,40.00,17,7,22,0.00
2014-8-30,84.0,74.7,65.0,51.0,43.0,36.0,61,32,21,0.00,40.00,19,12,28,0.00
2014-8-31,83.0,69.4,59.0,55.0,50.2,41.0,83,53,31,0.00,40.00,14,9,22,0.00
2014-9-1,91.0,76.4,62.0,54.0,46.1,40.0,57,35,22,0.00,40.00,17,7,21,0.00
2014-9-2,77.0,69.1,59.0,58.0,54.0,44.0,92,61,32,0.00,40.00,20,9,27,0.00
2014-9-3,80.0,65.1,55.0,57.0,55.0,54.0,99,74,42,0.00,40.00,15,7,20,0.00
2014-9-4,80.0,65.8,55.0,57.0,54.8,52.0,99,71,38,0.00,40.00,17,8,24,0.00
2014-9-5,75.0,63.0,55.0,57.0,55.3,54.0,99,79,50,0.00,40.00,17,8,24,0.00
2014-9-6,76.0,61.0,54.0,56.0,53.6,52.0,99,78,48,0.00,40.00,17,9,22,0.00
2014-9-7,75.0,62.3,54.0,54.0,52.8,51.0,99,74,47,0.00,40.00,17,10,22,0.00
2014-9-8,67.0,57.8,53.0,53.0,51.4,50.0,97,81,55,0.00,40.00,21,14,30,0.00
2014-9-9,79.0,64.9,52.0,54.0,50.7,44.0,98,65,29,0.00,40.00,14,8,21,0.00
2014-9-10,93.0,78.0,65.0,47.0,42.6,36.0,48,30,15,0.00,40.00,12,6,16,0.00
2014-9-11,93.0,81.1,72.0,49.0,41.1,33.0,36,25,16,0.00,40.00,12,6,20,0.00
2014-9-12,92.0,82.2,71.0,53.0,43.2,29.0,41,26,18,0.00,40.00,13,6,18,0.00
2014-9-13,89.0,73.8,64.0,57.0,49.5,44.0,63,43,28,0.00,40.00,13,5,19,0.00
2014-9-14,83.0,71.4,58.0,56.0,50.0,38.0,86,52,23,0.00,40.00,16,6,22,0.00
2014-9-15,76.0,66.0,57.0,57.0,52.4,46.0,91,63,44,0.00,40.00,19,11,27,0.00
2014-9-16,80.0,67.5,57.0,55.0,50.9,49.0,81,57,37,0.00,40.00,14,8,22,0.00
2014-9-17,82.0,68.9,58.0,58.0,54.1,51.0,95,62,37,0.00,40.00,21,11,28,0.00
2014-9-18,75.0,67.5,62.0,62.0,59.1,51.0,92,76,48,0.00,40.00,18,11,29,0.00
2014-9-19,78.0,66.7,59.0,59.0,57.0,54.0,97,73,50,0.00,40.00,16,8,23,0.00
2014-9-20,77.0,64.9,58.0,61.0,57.0,55.0,99,76,48,0.00,40.00,15,8,22,0.00
2014-9-21,70.0,61.9,58.0,58.0,57.3,56.0,96,86,63,0.00,40.00,20,12,27,0.00
2014-9-22,77.0,63.8,58.0,58.0,55.6,54.0,97,79,45,0.00,40.00,19,10,24,0.00
2014-9-23,77.0,64.5,56.0,62.0,57.2,54.0,100,81,46,0.00,40.00,17,10,23,0.00
2014-9-24,77.0,65.5,59.0,62.0,59.6,56.0,100,83,53,0.00,40.00,23,11,30,0.00
2014-9-25,69.0,61.1,56.0,61.0,56.2,52.0,100,86,55,0.00,40.00,15,8,21,0.24
2014-9-26,69.0,61.0,57.0,56.0,54.1,50.0,96,80,51,0.00,40.00,22,9,30,0.02
2014-9-27,69.0,60.4,56.0,56.0,53.6,52.0,94,79,54,0.00,40.00,19,12,25,0.00
2014-9-28,71.0,60.8,55.0,56.0,53.7,52.0,93,79,54,0.00,40.00,14,8,20,0.00
2014-9-29,74.0,60.9,55.0,57.0,54.7,51.0,99,82,45,0.00,40.00,18,8,22,0.00
2014-9-30,74.0,62.0,54.0,56.0,53.0,45.0,96,75,36,0.00,40.00,12,8,18,0.00
2014-10-1,80.0,71.8,65.0,54.0,35.6,28.0,66,30,15,0.00,40.00,20,13,29,0.00
2014-10-2,82.0,74.1,69.0,39.0,31.7,27.0,28,21,16,0.00,40.00,16,8,24,0.00
2014-10-3,89.0,79.3,71.0,39.0,34.1,30.0,28,20,12,0.00,40.00,10,5,15,0.00
2014-10-4,93.0,81.5,74.0,40.0,32.3,26.0,23,17,12,0.00,40.00,11,3,16,0.00
2014-10-5,94.0,81.3,74.0,42.0,33.6,29.0,23,18,10,0.00,40.00,11,4,14,0.00
2014-10-6,93.0,85.4,76.0,46.0,40.7,27.0,34,22,12,0.00,40.00,11,8,16,0.00
2014-10-7,87.0,78.9,70.0,46.0,40.7,35.0,37,26,17,0.00,40.00,13,6,18,0.00
2014-10-8,87.0,76.6,66.0,45.0,40.8,36.0,37,28,17,0.00,40.00,12,6,21,0.00
2014-10-9,78.0,70.2,59.0,54.0,45.2,36.0,70,42,29,0.00,40.00,12,6,17,0.00
2014-10-10,72.0,61.8,53.0,54.0,52.4,48.0,100,73,49,0.00,40.00,14,8,18,0.00
2014-10-11,81.0,64.5,52.0,53.0,49.2,44.0,99,61,33,0.00,40.00,13,5,17,0.00
2014-10-12,84.0,76.5,66.0,44.0,24.8,15.0,43,18,8,0.00,40.00,30,16,44,0.00
2014-10-13,85.0,77.5,68.0,45.0,28.6,15.0,40,19,10,0.00,40.00,20,9,28,0.00
2014-10-14,68.0,61.1,54.0,54.0,51.6,39.0,94,73,34,0.00,40.00,24,12,37,0.00
2014-10-15,68.0,61.9,57.0,55.0,52.0,46.0,91,71,48,0.00,40.00,18,10,27,0.00
2014-10-16,69.0,60.1,56.0,53.0,47.7,41.0,82,65,41,0.00,40.00,17,7,24,0.00
2014-10-17,72.0,63.1,56.0,50.0,44.1,39.0,65,51,39,0.00,40.00,16,8,24,0.00
2014-10-18,76.0,65.1,58.0,56.0,49.9,47.0,75,59,39,0.00,40.00,14,5,19,0.00
2014-10-19,75.0,63.9,58.0,57.0,54.2,51.0,94,72,49,0.00,40.00,16,7,22,0.00
2014-10-20,65.0,58.7,55.0,57.0,54.0,51.0,96,85,64,0.00,40.00,16,10,25,0.00
2014-10-21,68.0,58.0,53.0,52.0,47.3,41.0,91,70,39,0.00,40.00,16,7,21,0.00
2014-10-22,71.0,60.8,53.0,55.0,47.8,41.0,80,64,35,0.00,40.00,11,5,16,0.00
2014-10-23,72.0,63.4,57.0,56.0,52.7,47.0,97,70,46,0.00,40.00,14,5,20,0.00
2014-10-24,75.0,61.2,54.0,55.0,51.9,50.0,90,73,44,0.00,40.00,18,10,26,0.00
2014-10-25,66.0,60.4,56.0,56.0,52.9,50.0,97,77,60,0.00,40.00,31,17,43,0.09
2014-10-26,66.0,57.2,53.0,54.0,47.6,38.0,97,73,36,0.00,40.00,16,6,21,0.02
2014-10-27,70.0,57.6,51.0,49.0,45.0,38.0,80,65,33,0.00,40.00,12,4,19,0.01
2014-10-28,73.0,61.5,53.0,46.0,43.3,40.0,72,53,31,0.00,40.00,11,4,14,0.00
2014-10-29,76.0,66.2,57.0,46.0,42.4,39.0,63,44,26,0.00,40.00,13,6,19,0.00
2014-10-30,77.0,66.1,57.0,53.0,45.5,35.0,88,49,22,0.00,40.00,14,5,25,0.00
2014-10-31,61.0,55.8,52.0,54.0,51.5,50.0,99,86,74,0.00,40.00,22,12,32,0.23
2014-11-1,57.0,52.3,50.0,50.0,47.1,46.0,93,83,69,0.00,40.00,16,11,25,0.17
2014-11-2,62.0,54.1,48.0,48.0,43.7,39.0,90,69,45,0.00,40.00,14,7,24,0.07
2014-11-3,66.0,56.5,50.0,47.0,38.0,34.0,72,51,30,0.00,40.00,11,5,16,0.00
2014-11-4,67.0,57.6,49.0,46.0,38.8,33.0,75,52,31,0.00,40.00,10,6,15,0.00
2014-11-5,72.0,62.5,54.0,46.0,41.5,34.0,57,46,36,0.00,40.00,11,7,15,0.00
2014-11-6,74.0,64.9,58.0,49.0,45.5,40.0,60,50,35,0.00,40.00,13,5,18,0.00
2014-11-7,75.0,64.1,57.0,54.0,48.6,43.0,72,58,43,0.00,40.00,7,4,12,0.00
2014-11-8,74.0,66.4,60.0,49.0,44.2,40.0,57,44,35,0.00,40.00,13,5,17,0.00
2014-11-9,79.0,67.8,61.0,51.0,44.4,39.0,51,43,30,0.00,40.00,7,3,14,0.00
2014-11-10,74.0,62.6,52.0,54.0,48.5,40.0,98,62,43,0.00,40.00,16,6,22,0.00
2014-11-11,63.0,55.5,52.0,52.0,47.6,46.0,98,76,55,0.00,40.00,16,10,24,0.00
2014-11-12,63.0,55.7,53.0,47.0,44.1,43.0,77,66,48,0.00,40.00,13,7,19,0.00
2014-11-13,60.0,57.0,52.0,57.0,54.2,46.0,98,91,67,0.00,40.00,22,10,37,0.29
2014-11-14,61.0,55.5,53.0,54.0,51.5,49.0,99,87,64,0.00,40.00,12,8,18,0.01
2014-11-15,62.0,54.4,51.0,50.0,47.8,46.0,92,78,56,0.00,40.00,11,7,18,0.00
2014-11-16,56.0,53.0,50.0,47.0,23.8,12.0,84,37,18,0.00,40.00,21,12,33,0.00
2014-11-17,60.0,51.4,45.0,37.0,31.6,18.0,64,48,28,0.00,40.00,23,10,30,0.00
2014-11-18,57.0,51.7,47.0,44.0,38.6,32.0,73,61,51,0.00,40.00,13,7,18,0.00
2014-11-19,64.0,56.8,51.0,55.0,42.7,25.0,99,63,29,0.00,40.00,23,12,41,0.01
2014-11-20,55.0,53.2,50.0,55.0,51.5,47.0,100,94,82,0.00,40.00,14,7,29,0.26
2014-11-21,60.0,53.1,48.0,53.0,48.5,47.0,100,85,61,0.00,40.00,10,4,18,0.15
2014-11-22,59.0,55.9,52.0,59.0,51.9,46.0,99,86,67,0.00,40.00,25,14,35,0.03
2014-11-23,59.0,53.4,50.0,51.0,37.8,28.0,97,58,37,0.00,40.00,18,11,30,0.01
2014-11-24,62.0,55.0,50.0,34.0,29.3,20.0,47,38,22,0.00,40.00,21,12,25,0.00
2014-11-25,60.0,53.1,48.0,45.0,36.8,22.0,78,55,28,0.00,40.00,9,6,12,0.00
2014-11-26,66.0,56.2,48.0,46.0,44.0,40.0,85,65,46,0.00,40.00,10,5,14,0.00
2014-11-27,73.0,62.1,55.0,47.0,40.5,27.0,61,46,24,0.00,40.00,7,2,10,0.00
2014-11-28,64.0,54.1,44.0,49.0,37.0,20.0,97,56,23,0.00,40.00,16,6,20,0.00
2014-11-29,61.0,56.6,54.0,55.0,51.9,38.0,99,84,50,0.00,40.00,14,9,23,0.20
2014-11-30,58.0,55.0,50.0,55.0,48.8,37.0,99,80,51,0.00,40.00,10,6,21,0.47
2014-12-1,62.0,55.8,51.0,57.0,52.9,49.0,100,90,78,0.00,40.00,11,5,16,0.03
2014-12-2,61.0,53.8,50.0,56.0,52.3,50.0,100,95,71,0.00,40.00,23,12,37,1.36
2014-12-3,60.0,57.7,56.0,57.0,54.7,51.0,99,90,71,0.00,40.00,39,20,54,1.16
2014-12-4,64.0,58.7,56.0,55.0,53.1,51.0,97,82,71,0.00,40.00,15,9,25,0.08
2014-12-5,63.0,59.4,57.0,55.0,53.9,52.0,91,82,71,0.00,40.00,23,10,34,0.01
2014-12-6,64.0,58.3,55.0,57.0,53.9,52.0,100,85,74,0.00,40.00,22,8,34,0.05
2014-12-7,58.0,55.0,53.0,55.0,53.8,52.0,100,96,88,0.00,40.00,9,3,18,0.01
2014-12-8,68.0,58.4,53.0,55.0,51.2,46.0,97,77,62,0.00,40.00,9,3,15,0.01
2014-12-9,62.0,55.4,53.0,55.0,51.0,49.0,98,84,73,0.00,40.00,9,4,11,0.00
2014-12-10,62.0,56.0,49.0,52.0,48.3,46.0,100,74,58,0.00,40.00,38,14,49,0.00
2014-12-11,62.0,53.8,46.0,53.0,48.6,46.0,100,83,60,0.00,40.00,40,21,64,3.03
2014-12-12,51.0,47.6,44.0,48.0,45.4,43.0,100,92,82,0.00,40.00,10,6,15,1.69
2014-12-13,49.0,46.8,45.0,48.0,45.2,42.0,99,94,86,0.00,40.00,9,4,12,0.03
2014-12-14,54.0,45.8,42.0,46.0,43.6,41.0,100,91,73,0.00,40.00,9,4,15,0.00
2014-12-15,54.0,49.6,45.0,47.0,45.4,43.0,100,86,74,0.00,40.00,27,12,41,0.96
2014-12-16,57.0,51.3,46.0,48.0,44.9,42.0,93,80,60,0.00,40.00,26,15,40,0.36
2014-12-17,54.0,49.3,47.0,46.0,44.4,43.0,96,83,68,0.00,40.00,13,8,20,0.37
2014-12-18,56.0,51.1,46.0,51.0,47.4,44.0,98,87,78,0.00,40.00,11,4,16,0.16
2014-12-19,55.0,53.5,51.0,53.0,49.0,45.0,97,85,74,0.00,40.00,26,17,36,0.13
2014-12-20,56.0,50.9,52.0,54.0,46.4,46.0,100,87,72,0.00,40.00,17,7,23,0.13
2014-12-21,57.0,55.8,54.0,57.0,55.4,51.0,100,98,88,0.00,40.00,17,8,22,0.01
2014-12-22,63.0,57.0,54.0,56.0,54.0,50.0,100,90,73,0.00,40.00,10,4,17,0.00
2014-12-23,64.0,59.7,56.0,50.0,45.2,40.0,81,59,47,0.00,40.00,24,13,33,0.00
2014-12-24,57.0,51.0,44.0,51.0,43.5,37.0,98,77,52,0.00,40.00,24,10,40,0.02
2014-12-25,53.0,45.8,41.0,37.0,29.0,23.0,77,54,32,0.00,40.00,16,9,29,0.01
2014-12-26,50.0,46.5,42.0,27.0,24.4,22.0,48,42,33,0.00,40.00,24,18,38,0.00
2014-12-27,50.0,44.3,40.0,36.0,28.8,21.0,78,54,40,0.00,40.00,11,5,15,0.00
2014-12-28,56.0,45.8,39.0,45.0,36.4,32.0,92,71,43,0.00,40.00,9,4,15,0.00
2014-12-29,51.0,46.5,42.0,44.0,39.1,34.0,85,75,63,0.00,40.00,14,8,22,0.00
2014-12-30,48.0,41.9,38.0,36.0,20.8,10.0,86,46,25,0.00,40.00,30,17,46,0.00
2014-12-31,49.0,41.3,35.0,17.0,6.7,-2.0,43,25,12,0.00,40.00,25,18,41,0.00
2015-1-1,48.0,43.0,39.0,24.0,17.6,6.0,49,37,20,0.00,40.00,24,8,39,0.00
2015-1-2,48.0,40.9,35.0,30.0,25.4,21.0,67,54,44,0.00,40.00,11,4,14,0.00